Time;durP1;ratioP1;P1;durP2;ratioP2;P2;SDS_P1;SDS_P2;PMS_P1;PMS_P2;Temp;Humidity;BMP_temperature;BMP_pressure;BME280_temperature;BME280_humidity;BME280_pressure;Samples;Min_cycle;Max_cycle;Signal;HPM_P1;HPM_P2
2023/06/13 00:01:36;;;;;;;9.10;6.40;;;15.50;99.90;;;;;;5013937;28;20250;-56
2023/06/13 00:04:03;;;;;;;73.63;47.77;;;15.50;99.90;;;;;;5014139;28;20266;-55
2023/06/13 00:06:29;;;;;;;63.33;38.93;;;15.50;99.90;;;;;;5013849;28;20499;-54
2023/06/13 00:08:57;;;;;;;126.50;87.37;;;15.50;99.90;;;;;;5014184;28;20505;-55
2023/06/13 00:11:22;;;;;;;16.63;9.20;;;15.40;99.90;;;;;;5013817;28;20195;-55
2023/06/13 00:13:48;;;;;;;8.20;4.93;;;15.40;99.90;;;;;;5014108;28;20416;-56
2023/06/13 00:16:15;;;;;;;3.83;2.70;;;15.30;99.90;;;;;;5014273;28;20613;-55
2023/06/13 00:18:40;;;;;;;4.00;2.50;;;15.20;99.90;;;;;;5013660;28;20239;-54
2023/06/13 00:21:07;;;;;;;4.93;2.60;;;15.10;99.90;;;;;;5013655;28;20467;-54
2023/06/13 00:23:33;;;;;;;2.60;2.40;;;15.00;99.90;;;;;;5013833;28;20185;-56
2023/06/13 00:25:58;;;;;;;4.03;2.50;;;14.80;99.90;;;;;;5014128;28;20482;-55
2023/06/13 00:28:24;;;;;;;8.03;2.90;;;14.80;99.90;;;;;;5013844;28;20599;-54
2023/06/13 00:30:51;;;;;;;3.80;2.37;;;14.70;99.90;;;;;;5013829;28;20189;-55
2023/06/13 00:33:17;;;;;;;6.27;3.00;;;14.60;99.90;;;;;;5013456;28;20194;-56
2023/06/13 00:35:43;;;;;;;7.00;2.50;;;14.70;99.90;;;;;;5014058;28;20427;-54
2023/06/13 00:38:09;;;;;;;2.60;2.40;;;14.70;99.90;;;;;;5013916;28;20781;-55
2023/06/13 00:40:35;;;;;;;2.50;2.30;;;14.70;99.90;;;;;;5013342;28;20467;-56
2023/06/13 00:43:01;;;;;;;3.37;2.57;;;14.80;99.90;;;;;;5013610;28;20186;-55
2023/06/13 00:45:28;;;;;;;5.53;2.40;;;14.80;99.90;;;;;;5013234;28;20414;-54
2023/06/13 00:47:58;;;;;;;8.73;2.13;;;14.80;99.90;;;;;;5016738;28;20233;-56
2023/06/13 00:50:30;;;;;;;3.77;2.10;;;14.80;99.90;;;;;;5017852;28;20792;-56
2023/06/13 00:52:58;;;;;;;9.30;3.40;;;14.80;99.90;;;;;;5017223;28;20987;-56
2023/06/13 00:55:25;;;;;;;7.33;2.60;;;14.80;99.90;;;;;;5017276;28;20896;-53
2023/06/13 00:57:55;;;;;;;5.27;2.67;;;14.70;99.90;;;;;;5017025;28;20435;-53
2023/06/13 01:00:26;;;;;;;5.50;2.70;;;14.70;99.90;;;;;;5017447;28;20514;-55
2023/06/13 01:02:59;;;;;;;8.50;2.60;;;14.60;99.90;;;;;;5017319;28;20527;-55
2023/06/13 01:05:28;;;;;;;4.30;2.30;;;14.50;99.90;;;;;;5017652;28;20416;-54
2023/06/13 01:07:57;;;;;;;9.17;2.40;;;14.50;99.90;;;;;;5017359;28;20504;-55
2023/06/13 01:10:27;;;;;;;5.33;2.70;;;14.40;99.90;;;;;;5017327;28;20435;-55
2023/06/13 01:13:24;;;;;;;3.50;2.33;;;14.30;99.90;;;;;;5016910;28;20487;-54
2023/06/13 01:16:18;;;;;;;8.70;2.80;;;14.20;99.90;;;;;;5017028;28;20520;-53
2023/06/13 01:18:49;;;;;;;3.20;2.70;;;14.20;99.90;;;;;;5016039;28;20470;-55
2023/06/13 01:21:16;;;;;;;2.73;2.13;;;14.10;99.90;;;;;;5017019;28;20491;-55
2023/06/13 01:23:52;;;;;;;3.03;2.20;;;14.00;99.90;;;;;;5015793;28;20419;-57
2023/06/13 01:26:43;;;;;;;2.77;2.30;;;14.00;99.90;;;;;;5016808;28;20908;-53
2023/06/13 01:29:09;;;;;;;6.00;2.60;;;13.90;99.90;;;;;;5016510;28;20484;-52
2023/06/13 01:31:36;;;;;;;4.40;2.37;;;14.00;99.90;;;;;;5016932;28;20419;-56
2023/06/13 01:34:04;;;;;;;4.67;2.40;;;13.90;99.90;;;;;;5016938;28;20422;-54
2023/06/13 01:36:29;;;;;;;2.53;2.33;;;13.80;99.90;;;;;;5016721;28;20419;-56
2023/06/13 01:38:55;;;;;;;4.03;2.33;;;13.70;99.90;;;;;;5016292;28;20451;-55
2023/06/13 01:41:21;;;;;;;2.40;2.20;;;13.60;99.90;;;;;;5016461;28;20209;-55
2023/06/13 01:43:46;;;;;;;5.30;2.40;;;13.50;99.90;;;;;;5016914;28;20184;-55
2023/06/13 01:46:29;;;;;;;4.27;2.37;;;13.40;99.90;;;;;;5016819;28;20184;-55
2023/06/13 01:49:12;;;;;;;3.77;2.27;;;13.40;99.90;;;;;;5016643;28;20181;-55
2023/06/13 01:51:55;;;;;;;3.60;2.40;;;13.30;99.90;;;;;;5016725;28;20503;-56
2023/06/13 01:54:22;;;;;;;6.97;2.47;;;13.20;99.90;;;;;;5016313;28;20478;-56
2023/06/13 01:56:55;;;;;;;4.57;2.70;;;13.00;99.90;;;;;;5014691;28;20870;-54
2023/06/13 01:59:25;;;;;;;3.40;2.43;;;13.00;99.90;;;;;;5016448;28;20404;-55
2023/06/13 02:01:50;;;;;;;4.40;2.20;;;12.80;99.90;;;;;;5016469;28;20521;-55
2023/06/13 02:04:16;;;;;;;3.70;2.83;;;12.80;99.90;;;;;;5016417;28;20407;-54
2023/06/13 02:06:42;;;;;;;3.53;2.50;;;12.80;99.90;;;;;;5016515;28;20185;-55
2023/06/13 02:09:07;;;;;;;3.30;2.47;;;12.80;99.90;;;;;;5016110;28;20184;-55
2023/06/13 02:11:33;;;;;;;3.60;2.47;;;12.80;99.90;;;;;;5015957;28;20184;-55
2023/06/13 02:13:58;;;;;;;5.43;2.50;;;12.70;99.90;;;;;;5016274;28;20184;-55
2023/06/13 02:16:29;;;;;;;5.53;2.67;;;12.60;99.90;;;;;;5015940;28;20184;-54
2023/06/13 02:18:55;;;;;;;4.03;2.83;;;12.50;99.90;;;;;;5016191;28;20605;-55
2023/06/13 02:21:22;;;;;;;4.00;2.87;;;12.40;99.90;;;;;;5015884;28;20470;-54
2023/06/13 02:23:47;;;;;;;4.90;3.00;;;12.40;99.90;;;;;;5015521;28;20973;-54
2023/06/13 02:26:14;;;;;;;5.40;2.97;;;12.40;99.90;;;;;;5015813;28;20514;-55
2023/06/13 02:28:40;;;;;;;4.97;2.77;;;12.30;99.90;;;;;;5016042;28;20181;-55
2023/06/13 02:31:05;;;;;;;4.60;2.93;;;12.30;99.90;;;;;;5015789;28;20550;-55
2023/06/13 02:33:31;;;;;;;4.57;2.90;;;12.40;99.90;;;;;;5015612;28;20263;-56
2023/06/13 02:35:57;;;;;;;3.83;3.00;;;12.40;99.90;;;;;;5015564;28;20188;-53
2023/06/13 02:38:22;;;;;;;5.30;3.33;;;12.40;99.90;;;;;;5015184;28;20296;-55
2023/06/13 02:40:48;;;;;;;3.93;3.00;;;12.50;99.90;;;;;;5015044;28;20274;-53
2023/06/13 02:43:13;;;;;;;8.03;3.50;;;12.50;99.90;;;;;;5015310;28;20191;-54
2023/06/13 02:45:39;;;;;;;4.77;3.47;;;12.50;99.90;;;;;;5015806;28;20187;-55
2023/06/13 02:48:05;;;;;;;5.70;3.60;;;12.40;99.90;;;;;;5015613;28;20668;-56
2023/06/13 02:50:31;;;;;;;9.47;3.23;;;12.40;99.90;;;;;;5015577;28;20188;-55
2023/06/13 02:52:56;;;;;;;5.03;3.20;;;12.40;99.90;;;;;;5015161;28;20475;-54
2023/06/13 02:55:23;;;;;;;6.30;3.00;;;12.30;99.90;;;;;;5015235;28;20176;-54
2023/06/13 02:57:48;;;;;;;6.87;3.30;;;12.30;99.90;;;;;;5015103;28;20194;-54
2023/06/13 03:00:16;;;;;;;3.57;3.10;;;12.30;99.90;;;;;;5014942;28;20407;-55
2023/06/13 03:02:43;;;;;;;5.30;3.60;;;12.30;99.90;;;;;;5015081;28;20188;-54
2023/06/13 03:05:10;;;;;;;4.43;3.37;;;12.30;99.90;;;;;;5015543;28;20502;-54
2023/06/13 03:07:36;;;;;;;8.80;3.60;;;12.30;99.90;;;;;;5014832;28;20427;-54
2023/06/13 03:10:06;;;;;;;7.00;3.43;;;12.20;99.90;;;;;;5014391;28;20502;-54
2023/06/13 03:12:32;;;;;;;6.03;4.10;;;12.20;99.90;;;;;;5015168;28;20427;-54
2023/06/13 03:14:57;;;;;;;3.33;3.03;;;12.20;99.90;;;;;;5014916;28;20486;-55
2023/06/13 03:17:23;;;;;;;10.47;3.40;;;12.20;99.90;;;;;;5014824;28;20627;-54
2023/06/13 03:19:50;;;;;;;4.20;3.40;;;12.20;99.90;;;;;;5015276;28;20181;-54
2023/06/13 03:22:16;;;;;;;4.20;3.30;;;12.20;99.90;;;;;;5014544;28;20208;-54
2023/06/13 03:24:42;;;;;;;7.17;3.57;;;12.20;99.90;;;;;;5014765;28;20407;-54
2023/06/13 03:27:09;;;;;;;6.20;3.80;;;12.30;99.90;;;;;;5014444;28;20427;-52
2023/06/13 03:29:35;;;;;;;4.73;3.37;;;12.30;99.90;;;;;;5015113;28;20420;-55
2023/06/13 03:32:00;;;;;;;5.63;3.80;;;12.40;99.90;;;;;;5014310;28;20443;-55
2023/06/13 03:34:28;;;;;;;6.80;3.70;;;12.30;99.90;;;;;;5014626;28;20268;-55
2023/06/13 03:36:54;;;;;;;6.13;3.47;;;12.30;99.90;;;;;;5014453;28;20251;-54
2023/06/13 03:39:20;;;;;;;6.20;3.97;;;12.30;99.90;;;;;;5014856;28;20437;-55
2023/06/13 03:41:45;;;;;;;4.63;3.67;;;12.30;99.90;;;;;;5014310;28;20981;-55
2023/06/13 03:44:11;;;;;;;8.03;3.90;;;12.40;99.90;;;;;;5014207;28;20184;-54
2023/06/13 03:46:37;;;;;;;5.10;3.60;;;12.50;99.90;;;;;;5014641;28;20179;-53
2023/06/13 03:49:03;;;;;;;6.97;3.50;;;12.50;99.90;;;;;;5014327;28;20473;-56
2023/06/13 03:51:28;;;;;;;3.80;3.50;;;12.50;99.90;;;;;;5014208;28;20292;-56
2023/06/13 03:53:54;;;;;;;7.53;3.63;;;12.50;99.90;;;;;;5014039;28;20238;-54
2023/06/13 03:56:20;;;;;;;10.00;4.10;;;12.60;99.90;;;;;;5014102;28;20655;-55
2023/06/13 03:58:45;;;;;;;10.90;5.60;;;12.60;99.90;;;;;;5014341;28;20184;-54
2023/06/13 04:01:11;;;;;;;6.33;4.07;;;12.60;99.90;;;;;;5014065;28;20619;-55
2023/06/13 04:03:39;;;;;;;5.83;4.00;;;12.60;1.00;;;;;;5014371;28;20195;-56
2023/06/13 04:06:06;;;;;;;9.67;4.13;;;12.60;1.00;;;;;;5013971;28;20491;-54
2023/06/13 04:08:31;;;;;;;5.47;3.50;;;12.70;1.00;;;;;;5014037;28;20430;-55
2023/06/13 04:10:57;;;;;;;9.37;4.47;;;12.70;1.00;;;;;;5013908;28;20407;-55
2023/06/13 04:13:22;;;;;;;6.43;4.00;;;12.80;1.00;;;;;;5014056;28;20187;-56
2023/06/13 04:15:48;;;;;;;7.50;3.60;;;12.80;1.00;;;;;;5013933;28;20271;-54
2023/06/13 04:18:17;;;;;;;8.23;3.97;;;12.90;1.00;;;;;;5013894;28;20184;-56
2023/06/13 04:20:43;;;;;;;5.23;3.67;;;12.90;1.00;;;;;;5013561;28;20286;-55
2023/06/13 04:23:08;;;;;;;5.40;3.90;;;12.90;1.00;;;;;;5013463;28;20415;-55
2023/06/13 04:25:35;;;;;;;6.40;3.93;;;13.00;1.00;;;;;;5013492;28;20422;-55
2023/06/13 04:28:02;;;;;;;5.80;4.13;;;13.10;1.00;;;;;;5013860;28;20194;-54
2023/06/13 04:30:28;;;;;;;5.33;3.90;;;13.20;1.00;;;;;;5013716;28;20459;-56
2023/06/13 04:32:57;;;;;;;4.53;3.77;;;13.30;1.00;;;;;;5013661;28;20527;-54
2023/06/13 04:35:23;;;;;;;5.60;4.10;;;13.40;1.00;;;;;;5013731;28;20420;-54
2023/06/13 04:37:49;;;;;;;7.90;3.80;;;13.50;1.00;;;;;;5013157;28;20804;-53
2023/06/13 04:40:16;;;;;;;3.97;3.63;;;13.70;1.00;;;;;;5013603;28;20457;-55
2023/06/13 04:42:47;;;;;;;11.13;4.23;;;13.90;1.00;;;;;;5013821;28;20407;-56
2023/06/13 04:45:13;;;;;;;5.03;3.80;;;14.00;1.00;;;;;;5013553;28;20495;-54
2023/06/13 04:47:39;;;;;;;8.73;3.57;;;14.20;1.00;;;;;;5013695;28;20415;-54
2023/06/13 04:50:06;;;;;;;9.00;4.30;;;14.40;1.00;;;;;;5013619;28;20784;-56
2023/06/13 04:52:35;;;;;;;5.80;3.90;;;14.50;1.00;;;;;;5013552;28;20240;-55
2023/06/13 04:55:02;;;;;;;6.13;3.50;;;14.60;1.00;;;;;;5013445;28;20511;-57
2023/06/13 04:57:28;;;;;;;8.80;3.90;;;14.80;1.00;;;;;;5013427;28;20408;-55
2023/06/13 04:59:55;;;;;;;8.83;3.87;;;14.90;1.00;;;;;;5013858;28;20417;-56
2023/06/13 05:02:22;;;;;;;4.57;3.17;;;15.10;1.00;;;;;;5013028;28;20468;-57
2023/06/13 05:04:48;;;;;;;6.90;4.00;;;15.20;1.00;;;;;;5013617;28;20448;-55
2023/06/13 05:07:15;;;;;;;4.17;3.70;;;15.40;1.00;;;;;;5013739;28;20519;-56
2023/06/13 05:09:44;;;;;;;5.23;3.57;;;15.60;1.00;;;;;;5013546;28;20427;-55
2023/06/13 05:12:10;;;;;;;7.30;3.50;;;15.70;1.00;;;;;;5013349;28;20417;-57
2023/06/13 05:14:39;;;;;;;5.60;3.50;;;15.90;1.00;;;;;;5013250;28;20783;-56
2023/06/13 05:17:06;;;;;;;6.47;3.80;;;16.00;1.00;;;;;;5013027;28;20459;-57
2023/06/13 05:19:34;;;;;;;7.57;3.90;;;16.10;1.00;;;;;;5013352;28;20425;-56
2023/06/13 05:22:02;;;;;;;7.27;4.03;;;16.30;1.00;;;;;;5013264;28;20556;-55
2023/06/13 05:24:28;;;;;;;7.50;3.97;;;16.40;1.00;;;;;;5013309;28;20417;-57
2023/06/13 05:26:54;;;;;;;8.53;3.67;;;16.50;1.00;;;;;;5013310;28;20909;-56
2023/06/13 05:29:19;;;;;;;6.73;3.77;;;16.50;1.00;;;;;;5012977;28;20183;-56
2023/06/13 05:31:45;;;;;;;14.07;4.57;;;16.70;1.00;;;;;;5013294;28;20276;-54
2023/06/13 05:34:10;;;;;;;6.77;3.53;;;16.80;1.00;;;;;;5015719;28;20186;-55
2023/06/13 05:36:36;;;;;;;4.30;3.57;;;17.00;1.00;;;;;;5016580;28;20220;-55
2023/06/13 05:39:01;;;;;;;4.80;3.90;;;17.30;1.00;;;;;;5016580;28;20187;-56
2023/06/13 05:41:27;;;;;;;4.90;3.90;;;17.50;1.00;;;;;;5016429;28;20216;-56
2023/06/13 05:43:53;;;;;;;6.17;3.40;;;17.60;1.00;;;;;;5016656;28;20179;-55
2023/06/13 05:46:18;;;;;;;5.10;3.20;;;17.70;1.00;;;;;;5015353;28;20191;-55
2023/06/13 05:48:44;;;;;;;4.50;3.60;;;17.90;1.00;;;;;;5016188;28;20213;-56
2023/06/13 05:51:10;;;;;;;9.40;3.63;;;18.10;1.00;;;;;;5016300;28;20320;-55
2023/06/13 05:53:35;;;;;;;8.20;3.70;;;18.30;1.00;;;;;;5015957;28;20528;-55
2023/06/13 05:56:01;;;;;;;5.47;3.70;;;18.40;1.00;;;;;;5015903;28;20184;-55
2023/06/13 05:58:27;;;;;;;7.27;3.47;;;18.50;1.00;;;;;;5015749;28;20656;-55
2023/06/13 06:00:53;;;;;;;5.90;3.53;;;18.60;1.00;;;;;;5016597;28;20227;-55
2023/06/13 06:03:19;;;;;;;6.13;3.13;;;18.80;1.00;;;;;;5016497;28;20188;-55
2023/06/13 06:05:45;;;;;;;5.30;3.27;;;19.00;1.00;;;;;;5016015;28;20432;-55
2023/06/13 06:08:11;;;;;;;7.80;3.13;;;19.20;1.00;;;;;;5016157;28;20506;-55
2023/06/13 06:10:38;;;;;;;7.33;3.53;;;19.30;1.00;;;;;;5016320;28;20226;-54
2023/06/13 06:13:04;;;;;;;7.03;3.40;;;19.50;1.00;;;;;;5015814;28;20425;-55
2023/06/13 06:15:32;;;;;;;5.97;3.13;;;19.60;1.00;;;;;;5016113;28;20479;-54
2023/06/13 06:17:57;;;;;;;7.70;3.20;;;19.80;1.00;;;;;;5015909;28;20469;-55
2023/06/13 06:20:23;;;;;;;7.00;3.13;;;19.80;99.90;;;;;;5015673;28;20417;-54
2023/06/13 06:22:49;;;;;;;12.30;3.40;;;19.90;99.90;;;;;;5015617;28;20189;-55
2023/06/13 06:25:19;;;;;;;6.30;3.20;;;20.00;99.90;;;;;;5015827;28;20183;-55
2023/06/13 06:27:46;;;;;;;12.90;3.77;;;20.20;99.90;;;;;;5015962;28;20571;-54
2023/06/13 06:30:12;;;;;;;6.97;3.50;;;20.30;99.90;;;;;;5015342;28;20474;-53
2023/06/13 06:32:38;;;;;;;9.20;3.37;;;20.60;99.90;;;;;;5015967;28;20461;-54
2023/06/13 06:35:04;;;;;;;8.73;3.07;;;20.70;99.90;;;;;;5015816;28;20450;-54
2023/06/13 06:37:30;;;;;;;7.43;2.90;;;20.90;99.90;;;;;;5015585;28;20184;-54
2023/06/13 06:39:56;;;;;;;11.63;3.00;;;21.00;99.90;;;;;;5015541;28;20418;-55
2023/06/13 06:42:22;;;;;;;7.50;2.50;;;21.20;99.90;;;;;;5015536;28;20817;-53
2023/06/13 06:44:48;;;;;;;4.27;2.70;;;21.30;99.90;;;;;;5014356;28;20423;-52
2023/06/13 06:47:14;;;;;;;46.33;34.10;;;21.40;99.90;;;;;;5015348;28;20213;-53
2023/06/13 06:49:41;;;;;;;151.47;93.67;;;21.60;99.90;;;;;;5015164;28;20516;-53
2023/06/13 06:52:06;;;;;;;10.60;4.70;;;21.80;99.90;;;;;;5014699;28;20595;-55
2023/06/13 06:54:32;;;;;;;6.37;3.13;;;22.10;99.90;;;;;;5015204;28;20417;-53
2023/06/13 06:56:58;;;;;;;5.67;2.80;;;22.40;99.90;;;;;;5003256;28;20181;-54
2023/06/13 06:59:23;;;;;;;4.60;3.00;;;22.40;99.90;;;;;;4998327;28;20610;-54
2023/06/13 07:01:50;;;;;;;9.97;2.43;;;22.50;99.90;;;;;;4997680;28;20214;-54
2023/06/13 07:04:16;;;;;;;5.70;3.23;;;22.60;99.90;;;;;;4999124;28;20259;-53
2023/06/13 07:06:42;;;;;;;6.80;2.77;;;22.80;99.90;;;;;;4998587;28;20438;-54
2023/06/13 07:09:10;;;;;;;3.67;2.80;;;23.00;99.90;;;;;;4998088;28;20197;-54
2023/06/13 07:11:35;;;;;;;3.67;2.83;;;22.90;99.90;;;;;;4998354;28;20448;-53
2023/06/13 07:14:01;;;;;;;9.53;3.10;;;22.90;99.90;;;;;;4997741;28;20784;-54
2023/06/13 07:16:27;;;;;;;8.10;2.60;;;23.20;99.90;;;;;;4998020;28;20213;-52
2023/06/13 07:18:52;;;;;;;5.43;2.60;;;23.50;99.90;;;;;;4998209;28;20610;-54
2023/06/13 07:21:18;;;;;;;7.97;3.00;;;23.70;99.90;;;;;;4997823;28;20228;-53
2023/06/13 07:23:43;;;;;;;3.67;2.40;;;23.80;99.90;;;;;;4997565;28;20191;-54
2023/06/13 07:26:09;;;;;;;3.60;2.77;;;23.90;99.90;;;;;;4998665;28;20548;-54
2023/06/13 07:28:35;;;;;;;5.40;2.23;;;24.00;99.90;;;;;;4997567;28;20191;-54
2023/06/13 07:31:01;;;;;;;3.00;2.70;;;24.10;99.90;;;;;;4997235;28;20258;-55
2023/06/13 07:33:27;;;;;;;3.30;2.50;;;24.20;99.90;;;;;;4997814;28;20197;-53
2023/06/13 07:35:53;;;;;;;7.93;3.10;;;24.30;99.90;;;;;;4997450;28;20436;-54
2023/06/13 07:38:20;;;;;;;7.07;2.70;;;24.30;99.90;;;;;;4997858;28;20641;-54
2023/06/13 07:40:46;;;;;;;10.73;3.03;;;24.30;99.90;;;;;;4997325;28;20969;-52
2023/06/13 07:43:11;;;;;;;10.27;2.40;;;24.50;99.90;;;;;;4997300;28;20444;-51
2023/06/13 07:45:37;;;;;;;9.50;3.10;;;24.60;99.90;;;;;;4997234;28;20468;-54
2023/06/13 07:48:03;;;;;;;9.80;2.83;;;24.60;99.90;;;;;;5004176;28;20278;-55
2023/06/13 07:50:28;;;;;;;12.30;2.80;;;24.90;99.90;;;;;;5014003;28;20661;-54
2023/06/13 07:52:54;;;;;;;8.53;2.67;;;25.20;99.90;;;;;;5013698;28;20604;-54
2023/06/13 07:55:21;;;;;;;4.03;2.77;;;25.20;99.90;;;;;;5014180;28;20477;-53
2023/06/13 07:57:47;;;;;;;9.47;2.93;;;25.50;99.90;;;;;;5012665;28;20567;-53
2023/06/13 08:00:17;;;;;;;6.50;2.40;;;25.70;99.90;;;;;;5014240;28;20419;-52
2023/06/13 08:02:43;;;;;;;4.00;2.70;;;25.80;99.90;;;;;;5013986;28;20549;-54
2023/06/13 08:05:09;;;;;;;4.90;2.50;;;25.70;99.90;;;;;;5014057;28;20419;-54
2023/06/13 08:07:35;;;;;;;10.80;3.00;;;25.70;99.90;;;;;;5013667;28;20836;-54
2023/06/13 08:10:01;;;;;;;10.77;2.90;;;25.80;99.90;;;;;;5013810;28;20422;-53
2023/06/13 08:12:26;;;;;;;10.27;3.10;;;26.10;99.90;;;;;;5013435;28;20188;-54
2023/06/13 08:14:52;;;;;;;7.30;3.10;;;26.10;99.90;;;;;;5013451;28;20187;-53
2023/06/13 08:17:18;;;;;;;5.03;2.90;;;26.00;99.90;;;;;;5013613;28;20279;-55
2023/06/13 08:19:48;;;;;;;2.47;2.13;;;26.20;99.90;;;;;;5013449;28;20180;-53
2023/06/13 08:22:14;;;;;;;3.17;2.80;;;26.60;99.90;;;;;;5013750;28;20240;-53
2023/06/13 08:24:40;;;;;;;9.60;2.70;;;26.70;99.90;;;;;;5013733;28;20439;-53
2023/06/13 08:27:07;;;;;;;3.20;2.30;;;27.00;99.90;;;;;;5013296;28;20422;-54
2023/06/13 08:29:33;;;;;;;4.10;2.50;;;27.30;99.90;;;;;;5013683;28;20228;-53
2023/06/13 08:31:59;;;;;;;4.83;2.53;;;27.60;99.90;;;;;;5013385;28;20435;-54
2023/06/13 08:34:26;;;;;;;8.53;3.03;;;27.90;99.90;;;;;;5013643;28;20434;-53
2023/06/13 08:36:52;;;;;;;11.53;2.57;;;28.00;99.90;;;;;;5013076;28;20930;-52
2023/06/13 08:39:17;;;;;;;11.10;2.60;;;28.00;99.90;;;;;;5012914;28;20419;-52
2023/06/13 08:41:44;;;;;;;5.10;3.03;;;28.00;99.90;;;;;;5013473;28;20210;-55
2023/06/13 08:44:10;;;;;;;7.80;2.87;;;27.80;99.90;;;;;;5012967;28;20624;-53
2023/06/13 08:46:36;;;;;;;6.47;2.50;;;28.10;99.90;;;;;;5013367;28;20415;-54
2023/06/13 08:49:02;;;;;;;3.33;2.40;;;28.20;99.90;;;;;;5013245;28;20180;-53
2023/06/13 08:51:30;;;;;;;4.57;2.70;;;28.30;99.90;;;;;;5013021;28;20411;-53
2023/06/13 08:53:59;;;;;;;3.90;2.70;;;28.40;99.90;;;;;;5013196;28;20465;-54
2023/06/13 08:56:27;;;;;;;8.83;2.73;;;28.50;99.90;;;;;;5013280;28;20414;-52
2023/06/13 08:59:08;;;;;;;4.30;2.90;;;28.80;99.90;;;;;;5013061;28;20424;-53
2023/06/13 09:01:39;;;;;;;3.83;2.70;;;28.50;99.90;;;;;;5012974;28;20533;-53
2023/06/13 09:04:07;;;;;;;3.10;2.80;;;28.50;99.90;;;;;;5012730;28;20419;-52
2023/06/13 09:06:37;;;;;;;3.90;2.70;;;28.50;99.90;;;;;;5013200;28;20751;-52
2023/06/13 09:09:06;;;;;;;6.47;2.87;;;28.50;99.90;;;;;;5015857;28;20755;-53
2023/06/13 09:11:34;;;;;;;7.57;3.00;;;28.90;99.90;;;;;;5016287;28;20442;-52
2023/06/13 09:14:02;;;;;;;6.10;2.90;;;29.20;99.90;;;;;;5017064;28;20476;-53
2023/06/13 09:16:30;;;;;;;8.70;3.17;;;29.30;99.90;;;;;;5016555;28;20426;-53
2023/06/13 09:18:56;;;;;;;3.30;2.60;;;29.00;99.90;;;;;;5017055;28;20407;-54
2023/06/13 09:21:22;;;;;;;5.90;2.80;;;29.10;99.90;;;;;;5016675;28;20466;-54
2023/06/13 09:23:48;;;;;;;4.57;2.50;;;29.30;99.90;;;;;;5016726;28;20423;-52
2023/06/13 09:26:18;;;;;;;6.80;2.70;;;29.40;99.90;;;;;;5016714;28;20510;-52
2023/06/13 09:28:47;;;;;;;7.50;2.70;;;29.50;99.90;;;;;;5016521;28;20429;-52
2023/06/13 09:31:12;;;;;;;6.30;3.30;;;29.10;99.90;;;;;;5016479;28;20423;-53
2023/06/13 09:33:38;;;;;;;10.87;4.40;;;29.20;99.90;;;;;;5016181;28;20505;-52
2023/06/13 09:36:09;;;;;;;7.37;2.90;;;29.50;99.90;;;;;;5016684;28;20192;-52
2023/06/13 09:38:36;;;;;;;11.73;3.77;;;29.60;99.90;;;;;;5016746;28;20415;-53
2023/06/13 09:41:04;;;;;;;19.07;3.57;;;29.80;99.90;;;;;;5016538;28;20473;-52
2023/06/13 09:43:29;;;;;;;13.77;3.27;;;29.90;99.90;;;;;;5016260;28;20414;-53
2023/06/13 09:45:55;;;;;;;6.50;3.00;;;30.00;99.90;;;;;;5016232;28;20407;-52
2023/06/13 09:48:22;;;;;;;15.70;2.90;;;30.10;99.90;;;;;;5016244;28;20188;-51
2023/06/13 09:50:50;;;;;;;9.03;3.40;;;30.10;99.90;;;;;;5016384;28;20426;-53
2023/06/13 09:53:16;;;;;;;4.00;2.97;;;30.20;99.90;;;;;;5015750;28;20481;-52
2023/06/13 09:55:42;;;;;;;12.93;3.33;;;30.20;99.90;;;;;;5015800;28;20411;-52
2023/06/13 09:58:08;;;;;;;6.30;2.80;;;30.30;99.90;;;;;;5016228;28;20510;-52
2023/06/13 10:00:34;;;;;;;11.93;3.00;;;30.40;99.90;;;;;;5016196;28;20750;-52
2023/06/13 10:03:02;;;;;;;5.50;3.03;;;30.50;99.90;;;;;;5015733;28;20188;-53
2023/06/13 10:05:28;;;;;;;7.80;3.10;;;30.30;99.90;;;;;;5015890;28;20415;-52
2023/06/13 10:07:54;;;;;;;8.27;2.80;;;30.50;99.90;;;;;;5015615;28;20426;-53
2023/06/13 10:10:20;;;;;;;40.80;4.27;;;30.80;99.90;;;;;;5015574;28;20411;-53
2023/06/13 10:12:49;;;;;;;7.10;3.43;;;31.20;99.90;;;;;;5015414;28;20938;-53
2023/06/13 10:15:23;;;;;;;6.60;3.10;;;31.50;99.90;;;;;;5015634;28;20180;-53
2023/06/13 10:17:52;;;;;;;6.07;3.30;;;31.60;99.90;;;;;;5015795;28;20466;-52
2023/06/13 10:20:18;;;;;;;5.20;3.30;;;31.60;99.90;;;;;;5014244;28;20419;-52
2023/06/13 10:22:44;;;;;;;4.80;3.13;;;31.70;99.90;;;;;;5015538;28;20561;-52
2023/06/13 10:25:11;;;;;;;8.20;3.80;;;31.70;99.90;;;;;;5015716;28;20608;-52
2023/06/13 10:27:43;;;;;;;7.07;3.07;;;31.60;99.90;;;;;;5015767;28;20419;-53
2023/06/13 10:30:36;;;;;;;9.13;2.90;;;31.50;99.90;;;;;;5015126;28;20419;-52
2023/06/13 10:33:33;;;;;;;4.13;3.10;;;31.60;99.90;;;;;;5003773;28;20539;-52
2023/06/13 10:36:16;;;;;;;3.77;2.70;;;32.10;99.90;;;;;;4998190;28;20492;-51
2023/06/13 10:39:03;;;;;;;10.83;3.43;;;32.20;99.90;;;;;;4999316;28;20439;-52
2023/06/13 10:41:37;;;;;;;5.93;3.17;;;32.20;99.90;;;;;;4998938;28;20472;-52
2023/06/13 10:44:20;;;;;;;6.33;2.97;;;32.50;99.90;;;;;;4998477;28;20459;-53
2023/06/13 10:46:46;;;;;;;6.90;2.70;;;32.10;99.90;;;;;;5001516;28;21063;-52
2023/06/13 10:49:15;;;;;;;8.50;3.50;;;31.90;99.90;;;;;;4998215;28;20523;-52
2023/06/13 10:51:45;;;;;;;3.97;3.30;;;31.70;99.90;;;;;;4998165;28;20446;-52
2023/06/13 10:54:13;;;;;;;6.43;3.03;;;31.50;99.90;;;;;;5010365;28;20455;-52
2023/06/13 10:56:42;;;;;;;5.47;3.17;;;31.10;99.90;;;;;;5014664;28;20454;-52
2023/06/13 10:59:16;;;;;;;8.77;3.53;;;30.90;99.90;;;;;;5014944;28;20414;-53
2023/06/13 11:01:43;;;;;;;6.67;3.43;;;31.30;99.90;;;;;;5014925;28;20521;-53
2023/06/13 11:04:15;;;;;;;9.97;3.63;;;31.90;99.90;;;;;;5015068;28;20411;-53
2023/06/13 11:06:43;;;;;;;8.20;3.40;;;31.90;99.90;;;;;;5014801;28;20423;-53
2023/06/13 11:09:18;;;;;;;7.23;3.20;;;31.90;99.90;;;;;;5014821;28;20403;-53
2023/06/13 11:11:52;;;;;;;5.80;3.23;;;32.20;99.90;;;;;;5014479;28;20435;-54
2023/06/13 11:14:42;;;;;;;14.00;3.80;;;32.10;99.90;;;;;;5014382;28;20422;-53
2023/06/13 11:17:07;;;;;;;4.87;3.80;;;31.50;99.90;;;;;;5011663;28;20443;-53
2023/06/13 11:19:34;;;;;;;6.37;3.37;;;31.10;99.90;;;;;;5014037;28;20419;-54
2023/06/13 11:22:00;;;;;;;9.77;3.20;;;31.30;99.90;;;;;;5014669;28;20641;-54
2023/06/13 11:24:34;;;;;;;8.10;3.83;;;31.80;99.90;;;;;;5014614;28;20419;-53
2023/06/13 11:27:01;;;;;;;5.47;3.10;;;32.30;99.90;;;;;;5012866;28;20643;-53
2023/06/13 11:29:33;;;;;;;7.43;3.53;;;32.40;99.90;;;;;;5014130;28;20776;-53
2023/06/13 11:32:02;;;;;;;6.63;3.40;;;32.60;99.90;;;;;;5013672;28;20875;-53
2023/06/13 11:34:32;;;;;;;6.57;3.40;;;32.70;99.90;;;;;;5012549;28;20431;-53
2023/06/13 11:37:05;;;;;;;14.40;3.70;;;32.80;99.90;;;;;;5014265;28;20754;-53
2023/06/13 11:39:37;;;;;;;7.07;3.80;;;32.90;99.90;;;;;;5014100;28;20911;-52
2023/06/13 11:42:03;;;;;;;7.70;3.43;;;32.50;99.90;;;;;;5014331;28;20876;-53
2023/06/13 11:44:29;;;;;;;5.73;3.30;;;33.00;99.90;;;;;;5014462;28;20415;-53
2023/06/13 11:46:55;;;;;;;8.23;3.40;;;33.20;99.90;;;;;;5014101;28;20176;-53
2023/06/13 11:49:21;;;;;;;8.33;3.80;;;33.20;99.90;;;;;;5014201;28;20229;-53
2023/06/13 11:51:46;;;;;;;8.83;3.60;;;33.30;99.90;;;;;;5013729;28;20518;-52
2023/06/13 11:54:12;;;;;;;4.03;3.63;;;33.50;99.90;;;;;;5013878;28;20177;-53
2023/06/13 11:56:50;;;;;;;9.90;4.03;;;33.20;99.90;;;;;;5013513;28;20770;-53
2023/06/13 11:59:18;;;;;;;5.00;3.77;;;33.40;99.90;;;;;;5013966;28;20168;-53
2023/06/13 12:01:49;;;;;;;7.93;3.53;;;33.50;99.90;;;;;;5013689;28;20474;-52
2023/06/13 12:04:15;;;;;;;4.20;3.80;;;33.60;99.90;;;;;;5013805;28;20411;-53
2023/06/13 12:06:41;;;;;;;6.93;4.13;;;33.50;99.90;;;;;;5013775;28;20415;-54
2023/06/13 12:09:07;;;;;;;8.37;4.17;;;33.00;99.90;;;;;;5013853;28;20518;-54
2023/06/13 12:11:33;;;;;;;9.70;4.20;;;32.90;99.90;;;;;;5014018;28;20973;-54
2023/06/13 12:14:00;;;;;;;7.27;3.97;;;32.70;99.90;;;;;;5013638;28;20172;-54
2023/06/13 12:16:32;;;;;;;8.17;3.57;;;32.70;99.90;;;;;;5013455;28;20237;-54
2023/06/13 12:18:59;;;;;;;7.07;3.77;;;32.70;99.90;;;;;;5013866;28;20415;-54
2023/06/13 12:21:33;;;;;;;6.27;3.77;;;32.70;99.90;;;;;;5013300;28;21021;-55
2023/06/13 12:24:01;;;;;;;5.50;3.60;;;32.90;99.90;;;;;;5013692;28;20474;-54
2023/06/13 12:26:30;;;;;;;8.57;4.30;;;33.20;99.90;;;;;;5013579;28;20450;-54
2023/06/13 12:28:59;;;;;;;12.20;3.90;;;32.80;99.90;;;;;;5013755;28;20423;-53
2023/06/13 12:31:29;;;;;;;5.03;3.80;;;32.30;99.90;;;;;;5013329;28;20544;-54
2023/06/13 12:34:16;;;;;;;4.43;3.63;;;32.00;99.90;;;;;;5013389;28;20419;-53
2023/06/13 12:36:44;;;;;;;7.17;4.00;;;32.40;99.90;;;;;;5013302;28;20378;-53
2023/06/13 12:39:14;;;;;;;4.30;3.50;;;32.70;99.90;;;;;;5013482;28;20415;-53
2023/06/13 12:41:50;;;;;;;6.17;4.10;;;32.80;99.90;;;;;;5012943;28;20823;-54
2023/06/13 12:44:17;;;;;;;20.50;4.10;;;33.20;99.90;;;;;;5017146;28;20425;-53
2023/06/13 12:46:44;;;;;;;13.60;3.60;;;33.30;99.90;;;;;;5017194;28;20423;-54
2023/06/13 12:49:14;;;;;;;13.53;4.30;;;33.20;99.90;;;;;;5017481;28;20613;-54
2023/06/13 12:51:47;;;;;;;6.77;3.53;;;32.90;99.90;;;;;;5015945;28;20430;-54